Nrp Polar — CTEJ — position and weather

sailwx.info

Track history (hours):
 
Tides and Currents Weather Stations Pressure Air Temp Water Temp Dewpoint Dewpoint Depression Visibility Wind Speed Wind Dir Waves Ship Positions

Nrp Polar

Last reported at 2016-Apr-30 15:33 UTC. Time now 2016-May-03 22:04 UTC.
Position N 38°40' W 009°09'.

; draft 3 m.

Type: Sailing vessel. MMSI: 263142000.

Date/timePositionNaut miles runAvg speedWind from/ knotsBaromVisibWave heightAir tempDewpointWater temp
2016-Apr-30 15:33N 38°40' W 009°09'2 1.5
2016-Apr-30 14:28N 38°41' W 009°07'3 2.8
2016-Apr-30 13:33N 38°41' W 009°11'2 1.6
2016-Apr-30 12:33N 38°40' W 009°09'0 0.0
2016-Apr-30 11:31N 38°40' W 009°09'0 0.0
2016-Apr-30 10:33N 38°40' W 009°09'0 0.0
2016-Apr-29 22:12N 38°40' W 009°09'1 1.6
2016-Apr-29 21:33N 38°41' W 009°08'6 5.7
2016-Apr-29 20:32N 38°41' W 009°16'6 6.4
2016-Apr-29 19:32N 38°41' W 009°24'0 0.1
2016-Apr-29 18:33N 38°41' W 009°24'0 0.0
2016-Apr-29 17:33N 38°41' W 009°24'0 0.0
2016-Apr-29 16:33N 38°41' W 009°24'1 0.9
2016-Apr-29 15:31N 38°41' W 009°23'3 3.6
2016-Apr-29 14:33N 38°38' W 009°24'4 3.5
2016-Apr-29 13:33N 38°40' W 009°21'7 6.8
2016-Apr-29 12:33N 38°41' W 009°12'3 2.7
2016-Apr-29 11:33N 38°40' W 009°09'0 0.0
2016-Apr-29 10:34N 38°40' W 009°09'0 0.0
2016-Apr-29 09:32N 38°40' W 009°09'0 0.0
2016-Apr-28 10:28N 38°40' W 009°09'0 0.0
2016-Apr-28 09:31N 38°40' W 009°09'0 0.0
2016-Apr-28 08:31N 38°40' W 009°09'  
Track history (hours):
 
Tides and Currents Weather Stations Pressure Air Temp Water Temp Dewpoint Dewpoint Depression Visibility Wind Speed Wind Dir Waves Ship Positions

Nrp Polar

Last reported at 2016-Apr-30 15:33 UTC. Time now 2016-May-03 22:04 UTC.
Position N 38°40' W 009°09'.

; draft 3 m.

Type: Sailing vessel. MMSI: 263142000.

Date/timePositionNaut miles runAvg speedWind from/ knotsBaromVisibWave heightAir tempDewpointWater temp
2016-Apr-30 15:33N 38°40' W 009°09'2 1.5
2016-Apr-30 14:28N 38°41' W 009°07'3 2.8
2016-Apr-30 13:33N 38°41' W 009°11'2 1.6
2016-Apr-30 12:33N 38°40' W 009°09'0 0.0
2016-Apr-30 11:31N 38°40' W 009°09'0 0.0
2016-Apr-30 10:33N 38°40' W 009°09'0 0.0
2016-Apr-29 22:12N 38°40' W 009°09'1 1.6
2016-Apr-29 21:33N 38°41' W 009°08'6 5.7
2016-Apr-29 20:32N 38°41' W 009°16'6 6.4
2016-Apr-29 19:32N 38°41' W 009°24'0 0.1
2016-Apr-29 18:33N 38°41' W 009°24'0 0.0
2016-Apr-29 17:33N 38°41' W 009°24'0 0.0
2016-Apr-29 16:33N 38°41' W 009°24'1 0.9
2016-Apr-29 15:31N 38°41' W 009°23'3 3.6
2016-Apr-29 14:33N 38°38' W 009°24'4 3.5
2016-Apr-29 13:33N 38°40' W 009°21'7 6.8
2016-Apr-29 12:33N 38°41' W 009°12'3 2.7
2016-Apr-29 11:33N 38°40' W 009°09'0 0.0
2016-Apr-29 10:34N 38°40' W 009°09'0 0.0
2016-Apr-29 09:32N 38°40' W 009°09'0 0.0
2016-Apr-28 10:28N 38°40' W 009°09'0 0.0
2016-Apr-28 09:31N 38°40' W 009°09'0 0.0
2016-Apr-28 08:31N 38°40' W 009°09'  

Dump ship's entire track history